Terminal Aerodrome Forecast
Issued by NWS

Home | Current Version | Previous Version | Text Only | Print | Product List | Glossary On
Versions: 1 2 3 4 5 6 7 8 9 10 11 12 13 14 15 16 17 18 19 20
000
FTUS46 KMFR 281139
TAFRBG
TAF
KRBG 281139Z 2812/0112 VRB03KT P6SM VCSH BKN025 OVC035
     FM281400 VRB04KT P6SM BKN015 OVC025
     FM281700 35010KT P6SM FEW025 SCT100
     FM282200 36015G22KT P6SM SCT100
     FM010300 01008KT P6SM SKC=

USA.gov is the U.S. government's official web portal to all federal, state and local government web resources and services.